AAL1362 KLAX-KPHX
Flight info
| Callsign | AAL1362 |
|---|---|
| Flight time | N/A |
| Altitude | 37000 |
| Route | DOTSS2 CNERY BLH HYDRR1 |
| Aircraft | B77W/H-SDE1E2E3FGHIJ2J3J4J5M1RWXY/LB1D1 |
Departure
| Time | 2026-04-25 09:44 |
|---|---|
| Airport | Los Angeles International Airport (KLAX) |
Arrival
| Time | N/A |
|---|---|
| Airport | Phoenix Sky Harbor International Airport (KPHX) |
| Time | Latitude | Longitude | Altitude | Speed | Heading |
|---|---|---|---|---|---|
| 2026-04-25 08:30 | 33.94102 | -118.40751 | 138 ft | 0 kts | 70° |
| 2026-04-25 09:27 | 33.94099 | -118.40761 | 138 ft | 2 kts | 70° |
| 2026-04-25 09:27 | 33.94093 | -118.40778 | 138 ft | 2 kts | 70° |
| 2026-04-25 09:27 | 33.94089 | -118.40795 | 138 ft | 2 kts | 86° |
| 2026-04-25 09:27 | 33.94091 | -118.40813 | 138 ft | 2 kts | 109° |
| 2026-04-25 09:28 | 33.94097 | -118.40829 | 138 ft | 2 kts | 128° |
| 2026-04-25 09:28 | 33.94107 | -118.40841 | 138 ft | 2 kts | 147° |
| 2026-04-25 09:28 | 33.94111 | -118.40844 | 138 ft | 0 kts | 153° |
| 2026-04-25 09:28 | 33.94087 | -118.40833 | 138 ft | 6 kts | 171° |
| 2026-04-25 09:29 | 33.94036 | -118.40826 | 138 ft | 6 kts | 173° |
| 2026-04-25 09:29 | 33.94011 | -118.40823 | 139 ft | 1 kts | 173° |
| 2026-04-25 09:29 | 33.94010 | -118.40823 | 139 ft | 0 kts | 173° |
| 2026-04-25 09:29 | 33.94009 | -118.40823 | 139 ft | 0 kts | 173° |
| 2026-04-25 09:33 | 33.94001 | -118.40821 | 138 ft | 2 kts | 173° |
| 2026-04-25 09:33 | 33.93973 | -118.40817 | 139 ft | 4 kts | 173° |
| 2026-04-25 09:34 | 33.93941 | -118.40813 | 139 ft | 4 kts | 173° |
| 2026-04-25 09:34 | 33.93906 | -118.40809 | 140 ft | 4 kts | 185° |
| 2026-04-25 09:34 | 33.93881 | -118.40832 | 141 ft | 6 kts | 240° |
| 2026-04-25 09:34 | 33.93867 | -118.40913 | 141 ft | 12 kts | 263° |
| 2026-04-25 09:35 | 33.93857 | -118.41016 | 141 ft | 12 kts | 263° |
| 2026-04-25 09:35 | 33.93846 | -118.41124 | 140 ft | 13 kts | 263° |
| 2026-04-25 09:35 | 33.93835 | -118.41238 | 139 ft | 14 kts | 263° |
| 2026-04-25 09:35 | 33.93822 | -118.41362 | 138 ft | 15 kts | 263° |
| 2026-04-25 09:36 | 33.93808 | -118.41491 | 137 ft | 16 kts | 263° |
| 2026-04-25 09:36 | 33.93795 | -118.41606 | 136 ft | 10 kts | 262° |
| 2026-04-25 09:36 | 33.93798 | -118.41681 | 136 ft | 8 kts | 307° |
| 2026-04-25 09:36 | 33.93863 | -118.41706 | 135 ft | 11 kts | 352° |
| 2026-04-25 09:37 | 33.93896 | -118.41711 | 134 ft | 12 kts | 352° |
| 2026-04-25 09:37 | 33.93964 | -118.41721 | 132 ft | 13 kts | 354° |
| 2026-04-25 09:37 | 33.94072 | -118.41735 | 131 ft | 17 kts | 354° |
| 2026-04-25 09:37 | 33.94193 | -118.41752 | 130 ft | 18 kts | 353° |
| 2026-04-25 09:38 | 33.94261 | -118.41763 | 128 ft | 18 kts | 352° |
| 2026-04-25 09:38 | 33.94389 | -118.41783 | 129 ft | 17 kts | 353° |
| 2026-04-25 09:38 | 33.94508 | -118.41799 | 130 ft | 16 kts | 353° |
| 2026-04-25 09:38 | 33.94608 | -118.41813 | 131 ft | 10 kts | 5° |
| 2026-04-25 09:39 | 33.94647 | -118.41745 | 132 ft | 11 kts | 82° |
| 2026-04-25 09:39 | 33.94660 | -118.41633 | 133 ft | 15 kts | 82° |
| 2026-04-25 09:39 | 33.94673 | -118.41502 | 134 ft | 15 kts | 84° |
| 2026-04-25 09:40 | 33.94745 | -118.41394 | 135 ft | 9 kts | 354° |
| 2026-04-25 09:40 | 33.94786 | -118.41351 | 135 ft | 8 kts | 73° |
| 2026-04-25 09:40 | 33.94797 | -118.41267 | 136 ft | 12 kts | 83° |
| 2026-04-25 09:40 | 33.94809 | -118.41151 | 136 ft | 15 kts | 83° |
| 2026-04-25 09:41 | 33.94822 | -118.41018 | 136 ft | 16 kts | 83° |
| 2026-04-25 09:41 | 33.94836 | -118.40883 | 136 ft | 16 kts | 83° |
| 2026-04-25 09:41 | 33.94849 | -118.40744 | 135 ft | 16 kts | 84° |
| 2026-04-25 09:41 | 33.94865 | -118.40604 | 134 ft | 17 kts | 83° |
| 2026-04-25 09:42 | 33.94880 | -118.40459 | 132 ft | 17 kts | 83° |
| 2026-04-25 09:42 | 33.94895 | -118.40311 | 131 ft | 16 kts | 83° |
| 2026-04-25 09:42 | 33.94908 | -118.40205 | 130 ft | 9 kts | 69° |
| 2026-04-25 09:42 | 33.94969 | -118.40176 | 128 ft | 10 kts | 356° |
| 2026-04-25 09:43 | 33.95007 | -118.40186 | 127 ft | 3 kts | 318° |
| 2026-04-25 09:43 | 33.95013 | -118.40210 | 128 ft | 3 kts | 270° |
| 2026-04-25 09:43 | 33.95009 | -118.40268 | 128 ft | 14 kts | 264° |
| 2026-04-25 09:43 | 33.94963 | -118.40713 | 135 ft | 98 kts | 263° |
| 2026-04-25 09:44 | 33.94849 | -118.41847 | 193 ft | 169 kts | 262° |
| 2026-04-25 09:44 | 33.94680 | -118.43272 | 1025 ft | 176 kts | 261° |
| 2026-04-25 09:44 | 33.94529 | -118.44694 | 1906 ft | 178 kts | 263° |
| 2026-04-25 09:44 | 33.94391 | -118.46257 | 2436 ft | 196 kts | 264° |
| 2026-04-25 09:45 | 33.94280 | -118.47959 | 2986 ft | 214 kts | 269° |
| 2026-04-25 09:45 | 33.94259 | -118.49790 | 3640 ft | 229 kts | 269° |
| 2026-04-25 09:45 | 33.94197 | -118.51740 | 4382 ft | 241 kts | 265° |
| 2026-04-25 09:45 | 33.94019 | -118.53793 | 5140 ft | 252 kts | 264° |
| 2026-04-25 09:46 | 33.93835 | -118.55929 | 5932 ft | 263 kts | 265° |
| 2026-04-25 09:46 | 33.93660 | -118.58108 | 6913 ft | 265 kts | 265° |
| 2026-04-25 09:46 | 33.93315 | -118.60242 | 7844 ft | 267 kts | 249° |
| 2026-04-25 09:46 | 33.92276 | -118.62081 | 8721 ft | 273 kts | 224° |
| 2026-04-25 09:47 | 33.90646 | -118.63215 | 9673 ft | 278 kts | 200° |
| 2026-04-25 09:47 | 33.88706 | -118.63401 | 10494 ft | 290 kts | 175° |
| 2026-04-25 09:47 | 33.86829 | -118.62476 | 11297 ft | 306 kts | 147° |
| 2026-04-25 09:47 | 33.85250 | -118.60715 | 12154 ft | 316 kts | 139° |
| 2026-04-25 09:48 | 33.83680 | -118.58742 | 12768 ft | 335 kts | 138° |
| 2026-04-25 09:48 | 33.82031 | -118.56651 | 13366 ft | 354 kts | 139° |
| 2026-04-25 09:48 | 33.80318 | -118.54476 | 14037 ft | 372 kts | 139° |
| 2026-04-25 09:48 | 33.78493 | -118.52156 | 14817 ft | 389 kts | 138° |
| 2026-04-25 09:49 | 33.76615 | -118.49770 | 15592 ft | 405 kts | 138° |
| 2026-04-25 09:49 | 33.74618 | -118.47231 | 15956 ft | 420 kts | 138° |
| 2026-04-25 09:49 | 33.72583 | -118.44644 | 16330 ft | 439 kts | 138° |
| 2026-04-25 09:49 | 33.70489 | -118.41976 | 17727 ft | 437 kts | 138° |
| 2026-04-25 09:50 | 33.68464 | -118.39342 | 19156 ft | 435 kts | 134° |
| 2026-04-25 09:50 | 33.66716 | -118.36401 | 20198 ft | 446 kts | 124° |
| 2026-04-25 09:50 | 33.65335 | -118.33023 | 21097 ft | 460 kts | 115° |
| 2026-04-25 09:50 | 33.64376 | -118.29294 | 21976 ft | 473 kts | 105° |
| 2026-04-25 09:51 | 33.63905 | -118.25394 | 22854 ft | 484 kts | 96° |
| 2026-04-25 09:51 | 33.63913 | -118.21319 | 23768 ft | 493 kts | 90° |
| 2026-04-25 09:51 | 33.64057 | -118.17214 | 24557 ft | 502 kts | 90° |
| 2026-04-25 09:51 | 33.64177 | -118.12987 | 25332 ft | 511 kts | 90° |
| 2026-04-25 09:52 | 33.64234 | -118.08678 | 26102 ft | 519 kts | 92° |
| 2026-04-25 09:52 | 33.64233 | -118.04370 | 26874 ft | 527 kts | 92° |
| 2026-04-25 09:52 | 33.64226 | -117.99924 | 27699 ft | 534 kts | 92° |
| 2026-04-25 09:52 | 33.64216 | -117.95472 | 28452 ft | 542 kts | 92° |
| 2026-04-25 09:53 | 33.64205 | -117.90923 | 29161 ft | 550 kts | 92° |
| 2026-04-25 09:53 | 33.64193 | -117.86343 | 30033 ft | 554 kts | 92° |
| 2026-04-25 09:53 | 33.64180 | -117.81786 | 31051 ft | 553 kts | 92° |
| 2026-04-25 09:53 | 33.64166 | -117.77188 | 32056 ft | 552 kts | 93° |
| 2026-04-25 09:54 | 33.64156 | -117.72592 | 32933 ft | 552 kts | 94° |
| 2026-04-25 09:54 | 33.64143 | -117.67942 | 33688 ft | 554 kts | 94° |
| 2026-04-25 09:54 | 33.64129 | -117.63232 | 34436 ft | 556 kts | 94° |
| 2026-04-25 09:54 | 33.64113 | -117.58569 | 35276 ft | 555 kts | 94° |
| 2026-04-25 09:55 | 33.64097 | -117.53919 | 36107 ft | 553 kts | 94° |
| 2026-04-25 09:55 | 33.64079 | -117.49317 | 36853 ft | 552 kts | 94° |
| 2026-04-25 09:55 | 33.64057 | -117.44717 | 37430 ft | 553 kts | 94° |
| 2026-04-25 09:55 | 33.64034 | -117.40129 | 37894 ft | 555 kts | 94° |
| 2026-04-25 09:56 | 33.64009 | -117.35484 | 38365 ft | 557 kts | 94° |
| 2026-04-25 09:56 | 33.63982 | -117.30829 | 38759 ft | 560 kts | 94° |
| 2026-04-25 09:56 | 33.63953 | -117.26169 | 38941 ft | 564 kts | 94° |
| 2026-04-25 09:56 | 33.63922 | -117.21411 | 38945 ft | 572 kts | 94° |
| 2026-04-25 09:57 | 33.63853 | -117.11775 | 38950 ft | 578 kts | 94° |
| 2026-04-25 09:57 | 33.63781 | -117.02235 | 38951 ft | 576 kts | 94° |
| 2026-04-25 09:58 | 33.63699 | -116.92641 | 38944 ft | 577 kts | 94° |
| 2026-04-25 09:58 | 33.63610 | -116.83029 | 38938 ft | 575 kts | 94° |
| 2026-04-25 09:59 | 33.63512 | -116.73384 | 38970 ft | 580 kts | 94° |
| 2026-04-25 09:59 | 33.63408 | -116.63717 | 38962 ft | 576 kts | 94° |
| 2026-04-25 10:00 | 33.63296 | -116.54163 | 38938 ft | 579 kts | 94° |
| 2026-04-25 10:00 | 33.63176 | -116.44540 | 38922 ft | 578 kts | 94° |
| 2026-04-25 10:01 | 33.63049 | -116.34853 | 38914 ft | 578 kts | 94° |
| 2026-04-25 10:01 | 33.62914 | -116.25266 | 38858 ft | 580 kts | 94° |
| 2026-04-25 10:02 | 33.62772 | -116.15630 | 38859 ft | 580 kts | 95° |
| 2026-04-25 10:02 | 33.62622 | -116.05971 | 38839 ft | 582 kts | 95° |
| 2026-04-25 10:03 | 33.62464 | -115.96284 | 38850 ft | 582 kts | 94° |
| 2026-04-25 10:03 | 33.62299 | -115.86585 | 38851 ft | 582 kts | 94° |
| 2026-04-25 10:04 | 33.62126 | -115.76923 | 38867 ft | 581 kts | 94° |
| 2026-04-25 10:04 | 33.61946 | -115.67269 | 38868 ft | 582 kts | 94° |
| 2026-04-25 10:05 | 33.61757 | -115.57560 | 38868 ft | 584 kts | 94° |
| 2026-04-25 10:05 | 33.61533 | -115.47858 | 38869 ft | 583 kts | 95° |
| 2026-04-25 10:06 | 33.61297 | -115.38203 | 38849 ft | 583 kts | 94° |
| 2026-04-25 10:06 | 33.61051 | -115.28488 | 38817 ft | 583 kts | 95° |
| 2026-04-25 10:07 | 33.60801 | -115.18821 | 38805 ft | 582 kts | 95° |
| 2026-04-25 10:07 | 33.60540 | -115.09066 | 38812 ft | 586 kts | 95° |
| 2026-04-25 10:08 | 33.60278 | -114.99448 | 38051 ft | 578 kts | 95° |
| 2026-04-25 10:08 | 33.60142 | -114.94629 | 37053 ft | 581 kts | 95° |
| 2026-04-25 10:08 | 33.60005 | -114.89792 | 36195 ft | 581 kts | 95° |
| 2026-04-25 10:09 | 33.59868 | -114.85040 | 35430 ft | 580 kts | 95° |
| 2026-04-25 10:09 | 33.59727 | -114.80214 | 34601 ft | 579 kts | 95° |
| 2026-04-25 10:09 | 33.59353 | -114.75436 | 33731 ft | 574 kts | 103° |